Huntleigh, Missouri
Current Conditions -  °F | °C
As of 8:51 AM on Thursday 30 Oct 2014 (Local Time) from KSTL Reporting Station
Broken Clouds Broken Clouds  
Wind Chill: 44°   Ceiling: 9500
Heat Index: 48°   Visibility: 10mi
Dew Point: 38°   Wind: 9mph
Humidity: 68%   Direction: 150°SSE
Pressure: 30.14"   Gusts: NA
Location:  38.6172°N, 90.4443°W
Report Text: KSTL 301351Z 15008KT 10SM BKN095 BKN200 09/03 A3014 RMK AO2 SLP208 T00890033
Loading
Personal Weather Stations






























Interactive Weather Map
Tropical Storm Tracking
New forecast layout! Learn more

10-Day Weather Forecast

Advertisements
Track Severe Weather on mobile